createdAt,value
2018-12-18T07:42:30.029Z,96.80
2018-12-18T07:44:57.835Z,96.70
2018-12-18T07:47:25.647Z,96.70
2018-12-18T07:50:00.642Z,96.80
2018-12-18T07:52:49.862Z,96.70
2018-12-18T07:55:17.475Z,96.60
2018-12-18T07:57:52.442Z,96.70
2018-12-18T08:00:20.375Z,96.90
2018-12-18T08:02:47.901Z,96.80
2018-12-18T08:05:15.605Z,96.70
2018-12-18T08:07:43.549Z,96.60
2018-12-18T08:10:11.338Z,96.60
2018-12-18T08:12:46.599Z,96.60
2018-12-18T08:15:14.122Z,96.60
2018-12-18T08:17:41.847Z,96.50
2018-12-18T08:20:17.003Z,96.50
2018-12-18T08:22:44.582Z,96.50
2018-12-18T08:25:12.416Z,96.50
2018-12-18T08:27:43.547Z,96.50
2018-12-18T08:30:11.081Z,96.50
2018-12-18T08:39:21.718Z,96.40
2018-12-18T08:41:49.686Z,96.30
2018-12-18T08:44:17.574Z,96.30
2018-12-18T08:46:45.224Z,96.30
2018-12-18T08:49:12.774Z,96.30
2018-12-18T08:51:40.683Z,96.30
2018-12-18T08:54:08.611Z,96.30
2018-12-18T08:56:36.335Z,96.40
2018-12-18T08:59:04.152Z,96.40
2018-12-18T09:01:31.866Z,96.40
2018-12-18T09:03:59.415Z,96.40
2018-12-18T09:06:27.036Z,96.30
2018-12-18T09:08:54.905Z,96.30
2018-12-18T09:11:22.750Z,96.40
2018-12-18T09:13:50.608Z,96.30
2018-12-18T09:16:31.404Z,96.30
2018-12-18T09:19:11.646Z,96.40
2018-12-18T09:21:39.241Z,96.30
2018-12-18T09:24:07.139Z,96.30
2018-12-18T09:26:35.057Z,96.30
2018-12-18T09:29:02.796Z,96.30
2018-12-18T09:31:30.353Z,96.30
2018-12-18T10:05:56.410Z,95.80
2018-12-18T10:08:24.694Z,95.80
2018-12-18T10:10:56.312Z,95.80
2018-12-18T10:13:24.108Z,96.00
2018-12-18T10:15:51.817Z,95.90
2018-12-18T10:18:19.408Z,95.90
2018-12-18T10:20:47.010Z,95.90
2018-12-18T10:23:14.660Z,95.90
2018-12-18T10:25:42.338Z,95.90
2018-12-18T10:28:10.221Z,95.80
2018-12-18T10:30:37.776Z,95.80
2018-12-18T10:33:05.509Z,96.10
2018-12-18T10:35:36.676Z,95.70
2018-12-18T10:38:02.702Z,95.60
2018-12-18T10:40:30.245Z,95.60
2018-12-18T10:42:58.154Z,95.70
2018-12-18T10:45:26.010Z,95.70
2018-12-18T10:48:01.168Z,95.60
2018-12-18T10:50:28.997Z,95.60
2018-12-18T10:52:56.673Z,95.70
2018-12-18T10:55:24.210Z,95.70
2018-12-18T10:57:51.774Z,95.60
2018-12-18T11:01:25.746Z,95.50
2018-12-18T11:04:42.139Z,95.50
2018-12-18T11:07:09.702Z,95.50
2018-12-18T11:09:37.367Z,95.50
2018-12-18T11:12:04.962Z,95.50
2018-12-18T11:14:32.790Z,95.40
2018-12-18T11:17:00.645Z,95.40
2018-12-18T11:19:28.470Z,95.50
2018-12-18T11:21:56.086Z,95.50
2018-12-18T11:24:23.649Z,95.30
2018-12-18T11:26:52.639Z,95.40
2018-12-18T11:29:20.510Z,95.40
2018-12-18T11:31:48.367Z,95.30
2018-12-18T11:34:16.236Z,95.30
2018-12-18T11:36:44.107Z,95.40
2018-12-18T11:39:11.922Z,95.80
2018-12-18T11:41:39.465Z,95.30
2018-12-18T11:44:07.030Z,95.70
2018-12-18T11:46:34.781Z,95.10
2018-12-18T11:49:02.625Z,95.30
2018-12-18T11:51:30.187Z,95.10
2018-12-18T11:53:57.738Z,95.10
2018-12-18T11:56:25.320Z,95.10
2018-12-18T11:58:53.304Z,95.10
2018-12-18T12:01:21.467Z,95.10
2018-12-18T12:03:49.322Z,95.00
2018-12-18T12:06:22.832Z,95.10
2018-12-18T12:08:47.011Z,95.00
2018-12-18T12:11:22.281Z,95.00
2018-12-18T12:13:50.159Z,95.10
2018-12-18T12:16:17.973Z,95.00
2018-12-18T12:18:45.570Z,95.10
2018-12-18T12:21:13.186Z,95.00
2018-12-18T12:23:40.818Z,95.00
2018-12-18T12:26:14.242Z,95.10
2018-12-18T12:28:42.110Z,94.90
2018-12-18T12:31:10.023Z,94.90
2018-12-18T12:33:37.558Z,95.00
2018-12-18T12:36:12.733Z,95.00
2018-12-18T12:39:14.851Z,94.80
2018-12-18T12:41:42.629Z,94.90
2018-12-18T12:44:10.311Z,94.80
2018-12-18T12:46:37.915Z,94.50
2018-12-18T12:49:09.458Z,94.50
2018-12-18T12:51:44.854Z,94.30
2018-12-18T12:54:20.470Z,94.40
2018-12-18T12:56:48.052Z,94.10
2018-12-18T12:59:23.635Z,93.90
2018-12-18T13:01:58.560Z,94.30
2018-12-18T13:04:33.425Z,93.90
2018-12-18T13:37:21.081Z,94.10
2018-12-18T13:39:59.390Z,94.10
2018-12-18T13:42:34.503Z,93.90
2018-12-18T13:45:10.731Z,94.00
2018-12-18T13:47:46.206Z,94.00
2018-12-18T13:50:21.689Z,94.40
2018-12-18T13:52:56.699Z,94.00
2018-12-18T13:55:36.614Z,94.20
2018-12-18T13:58:08.878Z,94.20
2018-12-18T14:00:43.794Z,94.10
2018-12-18T14:03:19.126Z,94.20
2018-12-18T14:05:55.378Z,94.30
2018-12-18T14:09:12.030Z,94.20
2018-12-18T14:11:39.614Z,94.20
2018-12-18T14:19:16.332Z,94.10
2018-12-18T14:21:52.308Z,94.20
2018-12-18T14:24:27.740Z,94.20
2018-12-18T14:27:02.752Z,94.20
2018-12-18T14:29:30.490Z,94.00
2018-12-18T14:32:05.892Z,94.00
2018-12-18T14:34:43.963Z,93.90
2018-12-18T14:37:11.654Z,94.10
2018-12-18T14:39:53.857Z,93.90
2018-12-18T14:42:29.052Z,93.90
2018-12-18T14:44:56.697Z,94.10
2018-12-18T14:47:31.792Z,94.10
2018-12-18T14:49:59.381Z,93.70
2018-12-18T14:52:26.923Z,93.70
2018-12-18T14:54:54.523Z,93.80
2018-12-18T14:57:22.438Z,93.60
2018-12-18T14:59:50.125Z,93.50
2018-12-18T15:02:17.996Z,93.70
2018-12-18T15:04:45.677Z,93.70
2018-12-18T15:07:13.266Z,93.80
2018-12-18T15:09:40.838Z,93.80
2018-12-18T15:12:08.707Z,93.90
2018-12-18T15:14:36.538Z,94.20
2018-12-18T15:17:04.434Z,93.80
2018-12-18T15:19:32.101Z,93.90
2018-12-18T15:21:59.696Z,93.80
2018-12-18T15:24:27.247Z,93.90
2018-12-18T15:26:55.130Z,93.90
2018-12-18T15:29:22.938Z,93.70
2018-12-18T15:31:50.507Z,93.80
2018-12-18T15:34:18.081Z,93.70
2018-12-18T15:36:45.654Z,93.60
2018-12-18T15:39:13.642Z,93.60
2018-12-18T15:41:41.422Z,93.70
2018-12-18T15:44:09.009Z,93.60
2018-12-18T15:46:36.613Z,93.60
2018-12-18T15:49:04.190Z,93.40
2018-12-18T15:51:32.186Z,93.40
2018-12-18T15:54:00.192Z,93.40
2018-12-18T15:56:28.009Z,93.30
2018-12-18T15:58:55.559Z,93.00
2018-12-18T16:01:23.115Z,93.20
2018-12-18T16:03:50.917Z,93.10
2018-12-18T16:06:18.717Z,93.20
2018-12-18T16:08:46.742Z,93.30
2018-12-18T16:11:14.315Z,93.30
2018-12-18T16:13:41.878Z,93.30
2018-12-18T16:16:10.181Z,93.40
2018-12-18T16:18:38.029Z,93.30
2018-12-18T16:21:05.606Z,93.60
2018-12-18T16:23:33.568Z,93.40
2018-12-18T16:26:01.137Z,93.30
2018-12-18T16:28:28.794Z,93.30
2018-12-18T16:30:56.415Z,93.80
2018-12-18T16:33:24.386Z,93.30
2018-12-18T16:35:52.127Z,93.30
2018-12-18T16:38:19.679Z,93.20
2018-12-18T16:40:47.314Z,93.10
2018-12-18T16:43:14.946Z,92.80
2018-12-18T16:45:42.701Z,93.00
2018-12-18T16:48:10.620Z,92.90
2018-12-18T16:50:38.373Z,93.10
2018-12-18T16:53:05.998Z,93.00
2018-12-18T16:55:33.627Z,92.80
2018-12-18T16:58:01.210Z,92.80
2018-12-18T17:00:28.883Z,92.80
2018-12-18T17:02:56.790Z,92.60
2018-12-18T17:05:24.386Z,92.50
2018-12-18T17:07:51.986Z,92.60
2018-12-18T17:10:19.593Z,92.50
2018-12-18T17:12:53.239Z,92.70
2018-12-18T17:15:21.101Z,92.90
2018-12-18T17:17:48.948Z,92.40
2018-12-18T17:20:16.471Z,92.60
2018-12-18T17:22:44.051Z,92.70
2018-12-18T17:25:11.617Z,92.20
2018-12-18T17:27:39.358Z,92.10
2018-12-18T17:30:07.465Z,92.20
2018-12-18T17:32:42.593Z,92.30
2018-12-18T17:35:10.280Z,92.10
2018-12-18T17:37:38.202Z,91.80
2018-12-18T17:40:07.744Z,91.60
2018-12-18T17:42:35.577Z,91.70
2018-12-18T17:45:03.552Z,91.50
2018-12-18T17:47:45.388Z,91.50
2018-12-18T17:50:13.315Z,91.50
2018-12-18T17:52:41.158Z,91.40
2018-12-18T17:55:08.787Z,91.50
2018-12-18T17:57:36.434Z,91.70
2018-12-18T18:00:53.550Z,90.90
2018-12-18T18:03:21.116Z,91.30
2018-12-18T18:05:48.682Z,91.10
2018-12-18T18:08:16.633Z,90.90
2018-12-18T18:10:44.678Z,90.80
2018-12-18T18:13:12.236Z,90.70
2018-12-18T18:15:39.980Z,90.90
2018-12-18T18:18:07.576Z,90.70
2018-12-18T18:20:35.270Z,90.30
2018-12-18T18:23:03.208Z,90.50
2018-12-18T18:25:31.107Z,90.60
2018-12-18T18:27:58.690Z,90.50
2018-12-18T18:30:26.245Z,90.50
2018-12-18T18:32:54.087Z,90.60
2018-12-18T18:35:22.100Z,90.30
2018-12-18T18:37:49.901Z,90.30
2018-12-18T18:40:17.779Z,90.20
2018-12-18T18:42:45.422Z,90.30
2018-12-18T18:45:13.103Z,90.40
2018-12-18T18:47:41.829Z,90.00
2018-12-18T18:50:09.877Z,90.20
2018-12-18T18:52:37.850Z,90.10
2018-12-18T18:55:05.505Z,90.30
2018-12-18T18:57:33.091Z,90.40
2018-12-18T19:00:00.793Z,90.10
2018-12-18T19:02:28.398Z,90.10
2018-12-18T19:04:57.668Z,90.20
2018-12-18T19:07:25.325Z,90.50
2018-12-18T19:09:53.086Z,90.50
2018-12-18T19:12:20.705Z,89.60
2018-12-18T19:14:48.310Z,90.20
2018-12-18T19:17:15.855Z,89.30
2018-12-18T19:19:43.607Z,90.10
2018-12-18T19:22:19.214Z,90.40
2018-12-18T19:24:54.244Z,90.30
2018-12-18T19:27:29.154Z,89.80
2018-12-18T19:30:05.363Z,88.30
2018-12-18T19:32:33.037Z,89.20
2018-12-18T19:35:00.924Z,89.50
2018-12-18T19:37:28.513Z,89.20
2018-12-18T19:39:56.306Z,88.50
2018-12-18T19:42:23.875Z,89.30
2018-12-18T19:44:51.953Z,90.00
2018-12-18T19:47:19.883Z,88.60
2018-12-18T19:49:47.559Z,89.10
2018-12-18T19:52:15.511Z,88.90
2018-12-18T19:54:43.062Z,89.40
2018-12-18T19:57:10.635Z,89.30
2018-12-18T19:59:38.396Z,89.60
2018-12-18T20:02:06.291Z,89.30
2018-12-18T20:04:34.206Z,90.00
2018-12-18T20:07:01.850Z,89.00
2018-12-18T20:09:29.558Z,88.00
2018-12-18T20:11:57.225Z,89.60
2018-12-18T20:14:24.903Z,89.30
2018-12-18T20:16:52.578Z,89.40
2018-12-18T20:19:20.162Z,89.50
2018-12-18T20:21:47.778Z,89.10
2018-12-18T20:24:15.404Z,89.00
2018-12-18T20:26:43.202Z,89.00
2018-12-18T20:29:13.071Z,89.10
2018-12-18T20:31:40.901Z,89.10
2018-12-18T20:34:08.834Z,89.40
2018-12-18T20:36:36.854Z,89.30
2018-12-18T20:39:07.286Z,90.00
2018-12-18T20:41:35.159Z,89.60
2018-12-18T20:44:02.821Z,89.40
2018-12-18T20:46:30.393Z,89.40
2018-12-18T20:48:58.011Z,88.90
2018-12-18T20:51:25.610Z,89.00
2018-12-18T20:53:53.493Z,88.30
2018-12-18T20:56:21.498Z,88.50
2018-12-18T20:58:49.205Z,89.10
2018-12-18T21:01:16.842Z,89.50
2018-12-18T21:03:44.436Z,88.20
2018-12-18T21:06:12.009Z,88.30
2018-12-18T21:08:39.881Z,88.70
2018-12-18T21:11:07.806Z,89.10
2018-12-18T21:13:35.568Z,89.00
2018-12-18T21:16:03.368Z,89.30
2018-12-18T21:18:31.169Z,89.30
2018-12-18T21:20:58.762Z,89.80
2018-12-18T21:23:26.702Z,88.10
2018-12-18T21:25:54.638Z,88.00
2018-12-18T21:28:22.565Z,88.20
2018-12-18T21:30:50.511Z,89.00
2018-12-18T21:33:18.166Z,88.40
2018-12-18T21:35:45.730Z,88.70
2018-12-18T21:38:13.326Z,88.70
2018-12-18T21:40:41.146Z,87.60
2018-12-18T21:43:09.025Z,88.30
2018-12-18T21:45:37.166Z,88.70
2018-12-18T21:48:04.734Z,88.60
2018-12-18T21:50:32.341Z,89.80
2018-12-18T21:52:59.926Z,88.70
2018-12-18T21:55:27.645Z,88.90
2018-12-18T21:57:55.508Z,88.70
2018-12-18T22:00:23.026Z,88.10
2018-12-18T22:02:51.503Z,88.70
2018-12-18T22:05:19.174Z,88.30
2018-12-18T22:07:46.838Z,89.10
2018-12-18T22:10:14.762Z,89.10
2018-12-18T22:12:42.585Z,88.80
2018-12-18T22:15:10.519Z,89.30
2018-12-18T22:17:38.464Z,89.70
2018-12-18T22:20:06.165Z,88.10
2018-12-18T22:22:33.753Z,88.10
2018-12-18T22:25:01.360Z,88.50
2018-12-18T22:27:29.119Z,88.60
2018-12-18T22:29:57.000Z,88.90
2018-12-18T22:32:25.025Z,88.90
2018-12-18T22:34:52.645Z,88.70
2018-12-18T22:37:20.285Z,89.20
2018-12-18T22:39:47.854Z,88.90
2018-12-18T22:42:15.709Z,88.90
2018-12-18T22:44:43.552Z,89.20
2018-12-18T22:47:11.212Z,89.00
2018-12-18T22:49:38.986Z,88.70
2018-12-18T22:57:07.211Z,87.60
2018-12-18T22:59:35.035Z,88.30
2018-12-18T23:02:07.117Z,88.30
2018-12-18T23:04:37.138Z,87.90
2018-12-18T23:07:04.793Z,88.50
2018-12-18T23:09:40.069Z,88.80
2018-12-18T23:12:08.015Z,89.30
2018-12-18T23:14:35.836Z,87.60
2018-12-18T23:17:03.443Z,88.30
2018-12-18T23:19:31.055Z,88.10
2018-12-18T23:21:58.610Z,88.60
2018-12-18T23:24:26.486Z,88.60
2018-12-18T23:26:54.269Z,89.00
2018-12-18T23:29:21.973Z,89.10
2018-12-18T23:31:49.557Z,88.50
2018-12-18T23:34:17.181Z,88.40
2018-12-18T23:36:44.763Z,88.20
2018-12-18T23:39:12.724Z,88.50
2018-12-18T23:41:40.720Z,89.00
2018-12-18T23:44:08.708Z,88.10
2018-12-18T23:46:36.271Z,88.60
2018-12-18T23:49:03.863Z,88.00
2018-12-18T23:51:31.653Z,88.70
2018-12-18T23:53:59.369Z,89.00
2018-12-18T23:56:27.423Z,88.40
2018-12-18T23:58:55.007Z,89.00
